Time;durP1;ratioP1;P1;durP2;ratioP2;P2;SDS_P1;SDS_P2;PMS_P1;PMS_P2;Temp;Humidity;BMP_temperature;BMP_pressure;BME280_temperature;BME280_humidity;BME280_pressure;Samples;Min_cycle;Max_cycle;Signal;HPM_P1;HPM_P2
2021/03/01 00:00:15;;;;;;;11.60;6.75;;;;;;;3.93;58.04;98118.77;1753694;82;21156;-73
2021/03/01 00:02:44;;;;;;;11.25;6.45;;;;;;;3.88;57.90;98120.67;1753381;81;21477;-72
2021/03/01 00:05:14;;;;;;;10.50;6.60;;;;;;;3.86;58.01;98119.44;1752005;82;21159;-72
2021/03/01 00:07:43;;;;;;;13.30;7.50;;;;;;;3.88;57.94;98108.94;1753370;82;21168;-73
2021/03/01 00:10:11;;;;;;;14.93;7.78;;;;;;;3.88;57.99;98100.67;1753322;82;21187;-74
2021/03/01 00:12:40;;;;;;;11.80;6.55;;;;;;;3.89;57.98;98091.08;1736357;82;21159;-73
2021/03/01 00:15:11;;;;;;;11.30;6.85;;;;;;;3.89;57.79;98084.12;1753580;82;21157;-73
2021/03/01 00:17:39;;;;;;;11.33;6.03;;;;;;;3.91;57.78;98081.45;1753380;82;21610;-74
2021/03/01 00:20:11;;;;;;;13.93;6.58;;;;;;;3.92;57.46;98076.62;1753358;82;21183;-73
2021/03/01 00:22:40;;;;;;;11.75;5.83;;;;;;;3.93;57.57;98071.81;1753109;82;21144;-73
2021/03/01 00:25:10;;;;;;;8.48;5.12;;;;;;;3.95;57.51;98071.27;1753386;82;21196;-75
2021/03/01 00:27:38;;;;;;;10.65;5.80;;;;;;;3.95;57.25;98075.19;1731826;82;21164;-73
2021/03/01 00:30:08;;;;;;;10.53;5.53;;;;;;;3.98;57.10;98070.33;1753141;82;21159;-75
2021/03/01 00:32:37;;;;;;;9.18;5.28;;;;;;;4.01;57.19;98071.06;1753544;82;21570;-74
2021/03/01 00:35:08;;;;;;;10.88;5.65;;;;;;;4.01;56.95;98064.54;1731749;82;21196;-74
2021/03/01 00:37:36;;;;;;;10.00;6.30;;;;;;;4.04;56.95;98070.92;1723626;83;21212;-75
2021/03/01 00:40:08;;;;;;;8.78;6.03;;;;;;;4.05;56.86;98075.23;1732430;82;21128;-76
2021/03/01 00:42:35;;;;;;;8.08;5.42;;;;;;;4.08;56.72;98079.95;1753762;82;21132;-77
2021/03/01 00:45:06;;;;;;;9.55;6.00;;;;;;;4.09;56.80;98072.52;1754820;82;21136;-76
2021/03/01 00:47:35;;;;;;;10.95;6.10;;;;;;;4.12;56.86;98077.63;1743910;81;21499;-77
2021/03/01 00:50:07;;;;;;;9.00;5.92;;;;;;;4.10;56.55;98085.50;1721458;82;21137;-77
2021/03/01 00:52:34;;;;;;;11.78;7.30;;;;;;;4.09;56.77;98078.58;1741592;82;21156;-76
2021/03/01 00:55:03;;;;;;;12.85;8.50;;;;;;;4.09;56.69;98077.73;1741310;82;21331;-77
2021/03/01 00:57:30;;;;;;;10.88;7.08;;;;;;;4.09;56.72;98082.48;1719771;82;21608;-76
2021/03/01 00:59:58;;;;;;;12.35;7.95;;;;;;;4.10;56.75;98084.20;1741134;82;21140;-78
2021/03/01 01:02:26;;;;;;;13.45;7.20;;;;;;;4.11;56.87;98075.93;1740666;82;21256;-78
2021/03/01 01:04:55;;;;;;;12.50;7.28;;;;;;;4.13;56.87;98076.26;1740956;81;21264;-76
2021/03/01 01:07:23;;;;;;;12.68;6.70;;;;;;;4.17;56.85;98075.68;1720039;82;21169;-76
2021/03/01 01:09:51;;;;;;;15.32;7.70;;;;;;;4.21;57.02;98081.19;1740167;82;21133;-77
2021/03/01 01:12:18;;;;;;;11.03;7.42;;;;;;;4.24;57.02;98077.14;1734998;82;21294;-77
2021/03/01 01:14:45;;;;;;;12.68;7.65;;;;;;;4.30;57.20;98069.52;1712265;83;21163;-77
2021/03/01 01:17:13;;;;;;;15.03;7.50;;;;;;;4.35;57.22;98072.36;1712333;84;21180;-78
2021/03/01 01:19:41;;;;;;;13.78;7.55;;;;;;;4.40;57.16;98073.95;1712480;84;21192;-77
2021/03/01 01:22:09;;;;;;;11.48;6.78;;;;;;;4.43;57.21;98070.75;1722889;82;21120;-76
2021/03/01 01:24:36;;;;;;;12.20;7.53;;;;;;;4.45;57.14;98068.94;1740328;82;21672;-77
2021/03/01 01:27:05;;;;;;;14.07;8.05;;;;;;;4.49;57.21;98074.41;1741927;82;21172;-76
2021/03/01 01:29:32;;;;;;;15.43;9.15;;;;;;;4.51;57.19;98073.04;1742184;81;21173;-77
2021/03/01 01:32:00;;;;;;;15.83;9.13;;;;;;;4.55;57.14;98083.77;1741857;82;21267;-78
2021/03/01 01:34:28;;;;;;;13.13;8.38;;;;;;;4.59;57.12;98091.02;1741950;82;21193;-78
2021/03/01 01:36:55;;;;;;;12.98;8.58;;;;;;;4.62;57.13;98100.05;1742071;82;21275;-76
2021/03/01 01:39:25;;;;;;;18.67;9.58;;;;;;;4.66;57.12;98109.44;1742154;82;21372;-77
2021/03/01 01:41:52;;;;;;;16.60;9.90;;;;;;;4.68;57.17;98109.80;1700994;83;21771;-77
2021/03/01 01:44:20;;;;;;;15.83;9.20;;;;;;;4.71;57.13;98116.66;1715265;82;21145;-77
2021/03/01 01:46:47;;;;;;;17.70;8.60;;;;;;;4.71;57.29;98118.40;1712580;83;21558;-77
2021/03/01 01:49:14;;;;;;;16.48;10.25;;;;;;;4.72;57.22;98120.97;1712703;84;21148;-77
2021/03/01 01:51:43;;;;;;;16.48;9.23;;;;;;;4.72;57.34;98110.96;1713013;82;21149;-78
2021/03/01 01:54:14;;;;;;;12.68;8.48;;;;;;;4.73;57.43;98110.05;1694844;84;21255;-76
2021/03/01 01:56:42;;;;;;;16.62;9.15;;;;;;;4.77;57.36;98115.56;1719472;82;21401;-78
2021/03/01 01:59:10;;;;;;;15.28;10.20;;;;;;;4.76;57.44;98111.25;1741833;82;21157;-78
2021/03/01 02:01:37;;;;;;;15.25;9.03;;;;;;;4.77;57.50;98119.48;1720880;82;21144;-77
2021/03/01 02:04:11;;;;;;;17.32;9.55;;;;;;;4.77;57.52;98117.70;1720817;82;21101;-78
2021/03/01 02:06:45;;;;;;;15.58;10.08;;;;;;;4.78;57.57;98116.80;1712364;84;21134;-78
2021/03/01 02:09:33;;;;;;;;;;;;;;;4.80;57.56;98117.59;1711892;82;21644;-77
2021/03/01 02:12:24;;;;;;;13.75;8.33;;;;;;;4.80;57.57;98118.03;1712564;84;20137;-77
2021/03/01 02:15:06;;;;;;;20.17;9.83;;;;;;;4.82;57.55;98117.52;1713172;82;21164;-78
2021/03/01 02:17:43;;;;;;;16.27;9.05;;;;;;;4.89;57.54;98116.34;1826376;77;22739;-77
2021/03/01 02:20:11;;;;;;;18.62;10.38;;;;;;;4.84;57.59;98118.31;1830010;78;21254;-77
2021/03/01 02:22:40;;;;;;;15.95;9.55;;;;;;;4.86;57.52;98113.88;1753142;80;21265;-77
2021/03/01 02:25:18;;;;;;;20.08;10.40;;;;;;;4.86;57.63;98115.19;1756956;81;21290;-76
2021/03/01 02:27:54;;;;;;;14.80;9.33;;;;;;;4.89;57.60;98112.43;1740517;82;21274;-78
2021/03/01 02:30:32;;;;;;;15.70;9.58;;;;;;;4.90;57.69;98120.66;1740982;82;21286;-78
2021/03/01 02:33:18;;;;;;;18.42;10.45;;;;;;;4.92;57.69;98120.16;1741170;82;21282;-77
2021/03/01 02:35:59;;;;;;;15.20;9.60;;;;;;;4.93;57.53;98116.63;1740968;82;21688;-77
2021/03/01 02:38:29;;;;;;;16.05;8.85;;;;;;;4.95;57.60;98123.95;1739978;82;21120;-78
2021/03/01 02:40:58;;;;;;;15.13;9.33;;;;;;;4.97;57.57;98129.11;1756769;81;21273;-76
2021/03/01 02:43:29;;;;;;;12.60;7.95;;;;;;;4.98;57.52;98131.65;1772862;81;21309;-78
2021/03/01 02:45:58;;;;;;;16.62;10.10;;;;;;;4.98;57.62;98126.42;1755266;81;21668;-77
2021/03/01 02:48:28;;;;;;;16.57;10.05;;;;;;;4.97;58.36;98135.64;1752784;81;21306;-78
2021/03/01 02:50:57;;;;;;;17.75;9.20;;;;;;;4.89;58.51;98133.80;1740609;82;21294;-77
2021/03/01 02:53:28;;;;;;;20.25;11.22;;;;;;;4.79;59.07;98134.17;1739671;81;21311;-77
2021/03/01 02:55:57;;;;;;;18.00;10.18;;;;;;;4.71;59.02;98131.02;1740998;82;21287;-77
2021/03/01 02:58:28;;;;;;;14.63;8.30;;;;;;;4.68;59.22;98139.84;1740380;82;21422;-77
2021/03/01 03:00:58;;;;;;;19.55;10.82;;;;;;;4.65;59.29;98142.56;1740258;82;21179;-77
2021/03/01 03:03:28;;;;;;;21.17;12.07;;;;;;;4.58;59.95;98151.55;1740866;82;21156;-77
2021/03/01 03:05:57;;;;;;;15.35;10.28;;;;;;;4.54;60.60;98152.56;1712691;82;21603;-75
2021/03/01 03:08:25;;;;;;;20.30;11.05;;;;;;;4.50;61.54;98157.06;1741502;81;21297;-76
2021/03/01 03:10:54;;;;;;;23.60;11.95;;;;;;;4.46;61.60;98154.63;1749834;81;21301;-76
2021/03/01 03:13:22;;;;;;;18.50;11.68;;;;;;;4.44;61.18;98157.75;1770664;81;21175;-77
2021/03/01 03:15:55;;;;;;;21.70;11.80;;;;;;;4.38;63.29;98161.00;1769576;81;21758;-76
2021/03/01 03:18:25;;;;;;;20.68;11.03;;;;;;;4.32;62.66;98157.30;1756632;82;21188;-75
2021/03/01 03:20:55;;;;;;;18.70;11.65;;;;;;;4.26;64.03;98162.77;1757753;82;21229;-77
2021/03/01 03:23:22;;;;;;;15.88;8.13;;;;;;;4.22;64.93;98162.50;1757396;82;21208;-76
2021/03/01 03:25:50;;;;;;;19.75;11.12;;;;;;;4.19;64.43;98155.61;1757742;81;21250;-78
2021/03/01 03:28:17;;;;;;;17.55;10.48;;;;;;;4.19;64.06;98161.30;1756327;82;21192;-76
2021/03/01 03:30:46;;;;;;;18.92;11.08;;;;;;;4.19;66.01;98156.08;1756969;82;21188;-75
2021/03/01 03:33:16;;;;;;;20.88;12.25;;;;;;;4.18;65.27;98154.38;1757083;82;21290;-76
2021/03/01 03:35:45;;;;;;;19.15;12.45;;;;;;;4.15;65.53;98157.09;1756869;82;21187;-77
2021/03/01 03:38:23;;;;;;;15.83;8.28;;;;;;;4.16;65.62;98151.83;1756727;82;21742;-77
2021/03/01 03:40:56;;;;;;;20.48;13.05;;;;;;;4.18;67.33;98153.91;1750214;82;21190;-77
2021/03/01 03:43:26;;;;;;;22.80;12.78;;;;;;;4.14;67.06;98148.86;1819792;78;21553;-76
2021/03/01 03:45:56;;;;;;;22.52;12.37;;;;;;;3.90;66.71;98119.70;1808426;78;21233;-79
2021/03/01 03:48:28;;;;;;;19.27;11.30;;;;;;;4.15;68.86;98161.87;1788032;80;21595;-77
2021/03/01 03:51:00;;;;;;;22.45;12.82;;;;;;;4.18;67.26;98152.59;1788164;80;21284;-77
2021/03/01 03:53:31;;;;;;;22.20;13.05;;;;;;;4.21;67.59;98151.19;1754375;80;21295;-76
2021/03/01 03:56:01;;;;;;;27.35;14.15;;;;;;;4.23;67.62;98157.65;1781962;80;21302;-76
2021/03/01 03:58:34;;;;;;;23.50;13.32;;;;;;;4.20;67.96;98156.01;1781688;80;21275;-77
2021/03/01 04:01:03;;;;;;;24.23;13.83;;;;;;;4.20;68.27;98153.87;1788626;79;21271;-77
2021/03/01 04:03:33;;;;;;;24.98;13.22;;;;;;;4.20;68.43;98149.48;1781604;80;21156;-77
2021/03/01 04:06:02;;;;;;;22.15;13.18;;;;;;;4.22;69.27;98154.67;1788131;79;21305;-76
2021/03/01 04:08:31;;;;;;;24.65;12.80;;;;;;;4.18;69.25;98153.91;1820152;79;21174;-77
2021/03/01 04:10:59;;;;;;;25.32;12.70;;;;;;;4.17;68.92;98159.19;1794096;78;21598;-77
2021/03/01 04:13:29;;;;;;;22.95;13.75;;;;;;;4.15;69.58;98168.39;1787757;80;21148;-76
2021/03/01 04:15:58;;;;;;;22.17;11.88;;;;;;;4.08;69.21;98169.97;1788050;79;21194;-77
2021/03/01 04:18:35;;;;;;;22.30;14.25;;;;;;;4.03;69.52;98172.75;1797798;78;21160;-76
2021/03/01 04:21:07;;;;;;;25.32;15.08;;;;;;;3.98;69.67;98174.22;1796725;80;21373;-75
2021/03/01 04:23:36;;;;;;;25.35;16.27;;;;;;;3.98;69.70;98174.22;1797737;80;21286;-78
2021/03/01 04:26:05;;;;;;;23.05;14.25;;;;;;;3.97;69.96;98176.90;1756469;82;21869;-76
2021/03/01 04:28:34;;;;;;;24.02;15.32;;;;;;;3.90;69.51;98178.41;1775155;80;21274;-77
2021/03/01 04:31:05;;;;;;;23.77;14.45;;;;;;;3.87;69.74;98178.97;1788748;80;21136;-77
2021/03/01 04:33:35;;;;;;;24.92;14.60;;;;;;;3.82;69.78;98185.66;1787617;80;21199;-77
2021/03/01 04:36:05;;;;;;;28.42;17.07;;;;;;;3.69;70.36;98179.19;1787084;80;21269;-78
2021/03/01 04:38:33;;;;;;;26.23;16.02;;;;;;;3.61;70.07;98183.35;1787329;80;21597;-75
2021/03/01 04:41:03;;;;;;;26.75;16.25;;;;;;;3.56;70.84;98181.38;1774875;80;21124;-77
2021/03/01 04:43:35;;;;;;;28.00;14.50;;;;;;;3.47;70.89;98197.33;1754790;81;21132;-79
2021/03/01 04:46:04;;;;;;;27.10;15.70;;;;;;;3.42;70.64;98193.11;1755126;81;21313;-76
2021/03/01 04:48:32;;;;;;;26.27;16.25;;;;;;;3.41;70.73;98194.01;1756697;81;21283;-76
2021/03/01 04:51:01;;;;;;;26.05;15.00;;;;;;;3.42;70.81;98191.80;1756735;80;21146;-77
2021/03/01 04:53:30;;;;;;;24.87;16.20;;;;;;;3.42;71.48;98197.02;1756423;81;21291;-78
2021/03/01 04:55:57;;;;;;;23.70;14.70;;;;;;;3.46;71.07;98183.89;1730920;82;21114;-77
2021/03/01 04:58:26;;;;;;;24.67;13.80;;;;;;;3.49;71.88;98192.45;1777860;80;21620;-78
2021/03/01 05:00:54;;;;;;;24.02;14.50;;;;;;;3.50;71.30;98193.29;1788533;80;21285;-77
2021/03/01 05:03:22;;;;;;;25.20;15.15;;;;;;;3.55;71.60;98197.91;1788245;80;21133;-77
2021/03/01 05:05:52;;;;;;;21.75;14.47;;;;;;;3.64;71.66;98198.91;1788286;80;21549;-77
2021/03/01 05:08:20;;;;;;;24.35;14.80;;;;;;;3.74;71.63;98200.29;1774334;80;21258;-77
2021/03/01 05:10:52;;;;;;;23.90;14.00;;;;;;;3.78;71.43;98198.86;1756090;81;21143;-78
2021/03/01 05:13:19;;;;;;;21.95;13.55;;;;;;;3.82;71.48;98206.52;1736265;83;21301;-79
2021/03/01 05:15:47;;;;;;;26.68;13.65;;;;;;;3.88;71.18;98198.94;1736174;81;21161;-77
2021/03/01 05:18:14;;;;;;;22.50;14.25;;;;;;;3.91;71.49;98204.05;1758833;81;21128;-79
2021/03/01 05:20:41;;;;;;;19.30;12.33;;;;;;;3.91;71.54;98200.14;1765211;81;21172;-77
2021/03/01 05:23:11;;;;;;;20.57;13.13;;;;;;;3.94;71.40;98207.87;1746568;81;21147;-78
2021/03/01 05:25:38;;;;;;;18.65;13.10;;;;;;;3.97;71.36;98207.73;1735454;83;21310;-77
2021/03/01 05:28:07;;;;;;;21.93;13.55;;;;;;;4.03;71.42;98207.54;1734771;83;21215;-76
2021/03/01 05:30:35;;;;;;;20.48;12.23;;;;;;;4.07;71.33;98200.45;1736852;81;21624;-78
2021/03/01 05:33:03;;;;;;;20.85;13.55;;;;;;;4.11;71.18;98197.27;1761651;81;21124;-77
2021/03/01 05:35:30;;;;;;;19.60;13.25;;;;;;;4.13;71.33;98201.52;1765619;81;21163;-76
2021/03/01 05:38:00;;;;;;;21.42;14.35;;;;;;;4.17;71.23;98199.64;1743666;81;21153;-79
2021/03/01 05:40:28;;;;;;;24.02;15.95;;;;;;;4.26;71.44;98211.05;1734871;83;21124;-78
2021/03/01 05:42:57;;;;;;;21.40;14.70;;;;;;;4.36;71.59;98212.88;1734468;83;21134;-78
2021/03/01 05:45:25;;;;;;;22.95;14.55;;;;;;;4.41;71.23;98223.16;1743117;81;21637;-77
2021/03/01 05:47:53;;;;;;;22.50;14.10;;;;;;;4.41;70.87;98215.33;1764453;81;21660;-77
2021/03/01 05:50:23;;;;;;;25.77;13.78;;;;;;;4.37;70.91;98205.42;1765221;81;21191;-78
2021/03/01 05:52:55;;;;;;;24.07;13.68;;;;;;;4.33;70.40;98212.52;1764755;81;21167;-77
2021/03/01 05:55:23;;;;;;;22.32;14.03;;;;;;;4.34;70.44;98224.66;1764812;81;21643;-78
2021/03/01 05:57:51;;;;;;;24.70;15.25;;;;;;;4.32;70.22;98223.03;1756274;81;21163;-78
2021/03/01 06:00:19;;;;;;;25.25;14.35;;;;;;;4.31;70.32;98223.50;1734548;81;21346;-77
2021/03/01 06:02:47;;;;;;;33.08;20.43;;;;;;;4.32;70.52;98229.08;1735023;83;21168;-77
2021/03/01 06:05:16;;;;;;;19.55;12.88;;;;;;;4.32;70.43;98223.86;1736840;83;21180;-78
2021/03/01 06:07:48;;;;;;;18.52;12.03;;;;;;;4.28;70.39;98224.91;1736240;83;21163;-78
2021/03/01 06:10:21;;;;;;;22.35;12.90;;;;;;;4.24;70.12;98231.59;1737039;83;21286;-78
2021/03/01 06:12:51;;;;;;;21.80;13.72;;;;;;;4.18;70.31;98237.42;1745805;82;21764;-80
2021/03/01 06:16:01;;;;;;;21.70;13.93;;;;;;;4.26;71.18;98243.67;1835081;77;22968;-80
2021/03/01 06:19:04;;;;;;;18.65;10.95;;;;;;;4.22;70.55;98249.47;1810798;78;21136;-76
2021/03/01 06:21:55;;;;;;;23.42;14.38;;;;;;;4.32;70.61;98248.66;1794055;80;21124;-77
2021/03/01 06:24:22;;;;;;;20.57;12.53;;;;;;;4.38;70.57;98241.93;1739698;80;21290;-77
2021/03/01 06:26:55;;;;;;;22.15;14.68;;;;;;;4.49;70.75;98254.58;1670948;86;21148;-77
2021/03/01 06:29:24;;;;;;;22.73;14.45;;;;;;;4.58;70.41;98261.23;1671013;86;21623;-78
2021/03/01 06:31:51;;;;;;;18.48;12.55;;;;;;;4.65;70.32;98264.00;1668277;85;21171;-78
2021/03/01 06:34:33;;;;;;;20.77;11.83;;;;;;;4.68;70.14;98273.05;1700794;84;21179;-78
2021/03/01 06:37:17;;;;;;;22.85;14.18;;;;;;;4.69;70.27;98276.02;1693927;84;21163;-77
2021/03/01 06:39:51;;;;;;;24.30;14.13;;;;;;;4.76;70.22;98283.66;1742901;82;21170;-78
2021/03/01 06:42:28;;;;;;;23.12;13.55;;;;;;;4.79;69.92;98292.66;1666890;85;21181;-76
2021/03/01 06:45:04;;;;;;;21.85;13.25;;;;;;;4.84;69.83;98288.97;1772771;78;21335;-78
2021/03/01 06:47:54;;;;;;;23.40;14.50;;;;;;;4.89;69.48;98294.48;1807107;77;21139;-77
2021/03/01 06:50:41;;;;;;;20.20;13.65;;;;;;;4.86;69.22;98298.07;1820482;78;21247;-78
2021/03/01 06:53:15;;;;;;;19.98;13.95;;;;;;;4.88;69.21;98301.45;1818060;78;21294;-85
2021/03/01 06:56:16;;;;;;;20.32;13.15;;;;;;;4.93;69.00;98295.61;1802663;77;21161;-78
2021/03/01 06:58:46;;;;;;;24.47;17.25;;;;;;;4.98;68.78;98303.28;1815088;77;21223;-75
2021/03/01 07:25:59;;;;;;;21.40;14.15;;;;;;;5.38;67.52;98313.94;1812235;79;22730;-78
2021/03/01 07:28:29;;;;;;;21.02;12.82;;;;;;;5.37;67.75;98313.09;1799854;78;21131;-75
2021/03/01 07:30:58;;;;;;;18.70;13.48;;;;;;;5.42;67.50;98312.45;1830186;78;21266;-76
2021/03/01 07:33:26;;;;;;;21.12;14.53;;;;;;;5.42;67.41;98320.29;1825601;78;21281;-77
2021/03/01 07:35:54;;;;;;;22.58;14.43;;;;;;;5.39;66.97;98335.25;1807053;78;21087;-77
2021/03/01 07:38:25;;;;;;;23.92;16.25;;;;;;;5.45;67.32;98336.31;1797171;78;21175;-78
2021/03/01 07:40:55;;;;;;;20.90;13.30;;;;;;;5.56;67.52;98339.35;1797307;80;21166;-76
2021/03/01 07:43:24;;;;;;;21.70;13.90;;;;;;;5.68;67.22;98336.69;1797591;80;21580;-76
2021/03/01 07:45:52;;;;;;;21.23;13.25;;;;;;;5.83;67.42;98333.91;1778131;80;21122;-77
2021/03/01 07:48:20;;;;;;;21.12;12.50;;;;;;;5.98;67.30;98328.97;1820292;78;21238;-77
2021/03/01 07:50:50;;;;;;;18.77;12.30;;;;;;;6.11;67.30;98331.48;1797236;80;21205;-77
2021/03/01 07:53:51;;;;;;;19.27;12.00;;;;;;;6.31;67.34;98338.95;1794560;78;21514;-78
2021/03/01 07:56:32;;;;;;;16.15;11.00;;;;;;;6.69;66.67;98341.66;1810459;78;21159;-80
2021/03/01 07:59:04;;;;;;;17.50;10.25;;;;;;;7.39;66.93;98346.34;1812587;78;21290;-77
2021/03/01 08:01:32;;;;;;;16.73;11.50;;;;;;;8.00;66.79;98342.52;1808866;78;21286;-78
2021/03/01 08:04:37;;;;;;;17.85;11.90;;;;;;;8.57;65.96;98342.27;1782933;80;21242;-77
2021/03/01 08:07:15;;;;;;;;;;;;;;;9.12;64.38;98335.47;1755078;81;21614;-77
2021/03/01 08:09:51;;;;;;;17.12;11.10;;;;;;;9.64;60.48;98330.41;1743583;81;20137;-78
2021/03/01 08:12:39;;;;;;;15.78;11.40;;;;;;;9.85;62.42;98337.53;1751533;81;21175;-76
2021/03/01 08:15:09;;;;;;;16.15;11.85;;;;;;;9.64;59.70;98346.20;1755172;81;21159;-76
2021/03/01 08:17:40;;;;;;;17.32;12.10;;;;;;;9.28;59.68;98357.84;1745827;81;21163;-77
2021/03/01 08:20:26;;;;;;;19.65;12.65;;;;;;;9.00;59.46;98354.92;1740889;81;21179;-77
2021/03/01 08:23:09;;;;;;;21.90;11.57;;;;;;;8.75;60.10;98353.61;1749133;81;21308;-78
2021/03/01 08:25:54;;;;;;;19.12;12.00;;;;;;;8.63;60.50;98354.72;1751496;81;21624;-78
2021/03/01 08:28:32;;;;;;;16.48;11.63;;;;;;;8.54;58.32;98357.35;1745358;82;21706;-76
2021/03/01 08:31:12;;;;;;;18.05;12.00;;;;;;;8.47;59.66;98365.14;1805932;79;21139;-78
2021/03/01 08:33:40;;;;;;;17.52;12.45;;;;;;;8.41;59.92;98364.51;1789200;79;21285;-78
2021/03/01 08:36:17;;;;;;;19.00;13.18;;;;;;;8.34;59.52;98365.76;1790446;79;21271;-76
2021/03/01 08:38:54;;;;;;;;;;;;;;;8.24;59.75;98373.72;1782253;79;21140;-76
2021/03/01 08:41:42;;;;;;;21.27;14.30;;;;;;;8.08;60.01;98373.18;1787605;79;20210;-77
2021/03/01 08:44:27;;;;;;;17.77;11.57;;;;;;;7.92;60.03;98377.50;1794064;79;21231;-76
2021/03/01 08:47:59;;;;;;;19.80;11.95;;;;;;;7.76;60.41;98385.26;1801482;79;21230;-77
2021/03/01 08:50:57;;;;;;;19.55;13.40;;;;;;;7.70;60.77;98383.78;1698914;84;21181;-79
2021/03/01 08:53:56;;;;;;;18.07;12.15;;;;;;;7.72;60.72;98368.81;1684864;84;21707;-80
2021/03/01 08:56:37;;;;;;;19.62;12.60;;;;;;;7.78;60.95;98371.13;1688571;85;21207;-80
2021/03/01 08:59:36;;;;;;;16.73;11.90;;;;;;;7.95;60.72;98378.64;1685692;85;21155;-79
2021/03/01 09:02:06;;;;;;;20.00;11.68;;;;;;;7.95;60.72;98378.64;1667272;85;21143;-77
2021/03/01 09:04:34;;;;;;;19.40;11.95;;;;;;;8.06;60.40;98377.66;1688253;84;21162;-77
2021/03/01 09:07:08;;;;;;;16.42;11.20;;;;;;;8.22;60.34;98372.94;1665722;85;21180;-77
2021/03/01 09:09:51;;;;;;;16.00;10.03;;;;;;;8.50;60.50;98373.75;1785244;79;21132;-76
2021/03/01 09:12:43;;;;;;;11.45;8.05;;;;;;;8.80;57.85;98373.08;1815978;77;22825;-78
2021/03/01 09:15:12;;;;;;;13.43;8.55;;;;;;;8.71;57.37;98374.88;1802064;78;21189;-76
2021/03/01 09:17:50;;;;;;;14.73;9.55;;;;;;;8.52;56.91;98380.22;1760115;81;21114;-78
2021/03/01 09:20:22;;;;;;;15.85;10.55;;;;;;;8.37;57.85;98381.38;1766293;80;21145;-78
2021/03/01 09:22:50;;;;;;;13.75;8.10;;;;;;;8.32;57.05;98382.05;1770808;80;21284;-77
2021/03/01 09:25:34;;;;;;;11.75;7.95;;;;;;;8.20;55.93;98382.70;1758692;80;21115;-76
2021/03/01 09:28:04;;;;;;;12.88;9.60;;;;;;;7.97;57.01;98385.98;1775529;80;21279;-75
2021/03/01 09:30:33;;;;;;;16.25;10.25;;;;;;;7.87;57.68;98388.67;1726274;82;21163;-73
2021/03/01 09:33:05;;;;;;;17.02;9.45;;;;;;;7.78;58.15;98392.13;1713864;82;21775;-75
2021/03/01 09:35:36;;;;;;;15.75;10.72;;;;;;;7.83;58.52;98391.91;1731471;82;21138;-75
2021/03/01 09:38:05;;;;;;;21.57;11.22;;;;;;;7.95;58.97;98394.39;1709789;83;21152;-73
2021/03/01 09:40:32;;;;;;;16.52;11.12;;;;;;;8.05;58.69;98394.33;1721282;82;21143;-75
2021/03/01 09:43:04;;;;;;;15.78;10.70;;;;;;;8.08;58.69;98395.50;1741402;82;21272;-75
2021/03/01 09:45:36;;;;;;;15.35;10.08;;;;;;;8.13;58.76;98393.48;1727829;82;21155;-78
2021/03/01 09:48:10;;;;;;;20.97;13.22;;;;;;;8.17;58.64;98398.13;1737374;82;21269;-78
2021/03/01 09:50:38;;;;;;;18.17;10.13;;;;;;;8.28;58.77;98394.50;1728813;82;21147;-78
2021/03/01 09:53:07;;;;;;;16.67;10.78;;;;;;;8.43;58.74;98395.98;1728421;82;21188;-76
2021/03/01 09:55:35;;;;;;;14.58;9.58;;;;;;;8.62;58.13;98396.39;1731120;82;21157;-77
2021/03/01 09:58:32;;;;;;;28.42;10.60;;;;;;;8.86;58.41;98403.47;1731101;82;21170;-77
2021/03/01 10:01:21;;;;;;;20.65;9.53;;;;;;;8.86;58.41;98403.47;1738103;81;21294;-78
2021/03/01 10:03:50;;;;;;;16.42;9.30;;;;;;;9.09;57.66;98399.63;1730361;81;21251;-76
2021/03/01 10:06:31;;;;;;;13.98;9.40;;;;;;;9.26;57.87;98400.01;1712519;83;21158;-77
2021/03/01 10:09:08;;;;;;;15.58;9.30;;;;;;;9.44;56.88;98408.70;1719744;83;21296;-77
2021/03/01 10:11:38;;;;;;;14.13;9.35;;;;;;;9.61;57.18;98403.80;1714857;82;21197;-76
2021/03/01 10:14:11;;;;;;;13.32;9.43;;;;;;;9.73;57.02;98406.23;1688443;84;21776;-77
2021/03/01 10:16:41;;;;;;;11.40;8.43;;;;;;;9.83;56.70;98403.92;1685341;84;21191;-77
2021/03/01 10:19:24;;;;;;;10.18;7.17;;;;;;;9.88;56.34;98404.53;1699587;84;21185;-77
2021/03/01 10:21:51;;;;;;;9.20;6.20;;;;;;;9.98;54.46;98401.72;1692396;84;21189;-77
2021/03/01 10:24:20;;;;;;;10.68;6.78;;;;;;;9.90;53.02;98401.31;1697125;84;21149;-77
2021/03/01 10:27:03;;;;;;;19.07;7.60;;;;;;;9.91;53.29;98408.28;1688188;84;21146;-78
2021/03/01 10:29:37;;;;;;;8.03;4.42;;;;;;;9.89;53.18;98405.36;1700001;83;21208;-77
2021/03/01 10:32:21;;;;;;;6.90;5.00;;;;;;;9.73;48.92;98419.41;1697286;83;21209;-77
2021/03/01 10:34:51;;;;;;;5.28;3.20;;;;;;;9.08;49.54;98407.57;1698047;84;21173;-76
2021/03/01 10:37:26;;;;;;;8.05;4.25;;;;;;;8.83;50.10;98422.02;1683925;85;21201;-77
2021/03/01 10:39:54;;;;;;;7.15;4.65;;;;;;;8.81;51.66;98416.86;1701407;84;21589;-77
2021/03/01 10:42:24;;;;;;;7.30;4.60;;;;;;;8.85;51.15;98413.12;1701448;84;21157;-76
2021/03/01 10:47:35;;;;;;;8.68;5.85;;;;;;;8.78;48.50;98413.06;1819265;79;22725;-77
2021/03/01 10:50:19;;;;;;;5.15;3.40;;;;;;;8.67;51.12;98410.13;1777107;80;21180;-75
2021/03/01 10:52:46;;;;;;;7.20;4.83;;;;;;;8.82;51.40;98412.44;1777576;81;21333;-77
2021/03/01 10:55:14;;;;;;;8.03;5.25;;;;;;;8.94;50.27;98411.80;1782691;80;21270;-78
2021/03/01 10:57:42;;;;;;;8.35;5.90;;;;;;;8.98;50.40;98411.17;1794245;80;21286;-75
2021/03/01 11:00:11;;;;;;;7.50;5.40;;;;;;;9.03;51.26;98403.42;1789833;78;21285;-77
2021/03/01 11:02:38;;;;;;;7.87;5.45;;;;;;;9.22;51.43;98400.64;1763238;81;21246;-76
2021/03/01 11:05:07;;;;;;;7.37;4.95;;;;;;;9.33;51.56;98402.68;1772799;78;21297;-77
2021/03/01 11:07:34;;;;;;;5.75;4.17;;;;;;;9.33;50.85;98407.11;1768445;80;21301;-77
2021/03/01 11:10:04;;;;;;;8.13;5.05;;;;;;;9.09;48.36;98407.51;1770075;78;21168;-77
2021/03/01 11:12:33;;;;;;;13.00;5.00;;;;;;;8.88;49.13;98419.54;1787281;78;21967;-78
2021/03/01 11:15:14;;;;;;;7.78;5.10;;;;;;;8.62;49.05;98415.63;1732123;81;21308;-77
2021/03/01 11:17:41;;;;;;;7.12;4.28;;;;;;;8.59;50.85;98411.38;1752299;81;21215;-76
2021/03/01 11:20:10;;;;;;;8.03;4.80;;;;;;;8.67;50.08;98413.63;1759588;81;21150;-76
2021/03/01 11:22:38;;;;;;;7.37;5.17;;;;;;;8.78;51.02;98417.45;1759822;81;21318;-78
2021/03/01 11:25:07;;;;;;;9.08;5.00;;;;;;;9.10;51.23;98401.77;1776991;81;21187;-78
2021/03/01 11:27:35;;;;;;;6.97;4.78;;;;;;;9.36;51.14;98410.90;1751194;81;21330;-78
2021/03/01 11:30:03;;;;;;;7.42;4.97;;;;;;;9.53;51.08;98408.19;1708751;81;21180;-78
2021/03/01 11:32:31;;;;;;;6.55;4.30;;;;;;;9.68;50.53;98406.94;1706846;81;21168;-76
2021/03/01 11:35:03;;;;;;;10.25;4.72;;;;;;;9.72;49.52;98403.22;1725253;82;21106;-77
2021/03/01 11:37:30;;;;;;;8.03;4.67;;;;;;;9.75;50.28;98404.83;1732567;83;21162;-77
2021/03/01 11:39:58;;;;;;;6.60;3.98;;;;;;;9.84;50.77;98401.67;1732517;83;21182;-77
2021/03/01 11:42:25;;;;;;;5.65;3.95;;;;;;;9.91;49.75;98400.38;1739828;81;21246;-77
2021/03/01 11:44:52;;;;;;;8.88;4.75;;;;;;;9.93;48.94;98407.73;1751246;81;21788;-78
2021/03/01 11:47:21;;;;;;;7.95;4.20;;;;;;;10.03;49.42;98408.53;1721656;81;21131;-77
2021/03/01 11:49:48;;;;;;;5.03;3.55;;;;;;;10.08;48.85;98407.33;1707516;82;21738;-76
2021/03/01 11:52:16;;;;;;;3.90;2.42;;;;;;;10.07;48.45;98406.95;1781382;79;21179;-76
2021/03/01 11:54:44;;;;;;;6.00;3.52;;;;;;;10.05;47.04;98410.61;1758183;80;21292;-76
2021/03/01 11:57:16;;;;;;;6.58;3.05;;;;;;;9.65;46.30;98415.87;1777849;81;21140;-77
2021/03/01 12:00:09;;;;;;;4.83;2.45;;;;;;;9.42;46.57;98413.66;1758714;79;21172;-78
2021/03/01 12:02:39;;;;;;;4.87;3.35;;;;;;;9.14;46.83;98411.21;1772854;80;21283;-78
2021/03/01 12:05:09;;;;;;;7.30;3.15;;;;;;;8.99;47.30;98411.08;1779067;81;21791;-78
2021/03/01 12:07:44;;;;;;;4.45;2.80;;;;;;;8.99;47.79;98406.30;1780637;81;21605;-77
2021/03/01 12:10:13;;;;;;;5.35;3.10;;;;;;;9.08;47.91;98410.20;1775320;79;21291;-78
2021/03/01 12:12:40;;;;;;;5.60;3.25;;;;;;;9.13;46.74;98402.93;1800704;79;21255;-78
2021/03/01 12:15:10;;;;;;;6.83;3.50;;;;;;;9.19;47.79;98411.80;1784201;79;21156;-76
2021/03/01 12:17:37;;;;;;;5.55;3.62;;;;;;;9.31;48.14;98409.83;1730993;80;21178;-77
2021/03/01 12:20:07;;;;;;;8.30;4.60;;;;;;;9.58;48.28;98405.30;1749995;82;21254;-78
2021/03/01 12:22:34;;;;;;;7.12;3.40;;;;;;;9.90;48.31;98403.11;1780989;79;21731;-77